createdAt,value
2022-09-11T00:00:55.631Z,77.95
2022-09-11T00:04:02.874Z,78.00
2022-09-11T00:07:08.799Z,78.12
2022-09-11T00:10:14.666Z,78.04
2022-09-11T00:13:23.046Z,78.01
2022-09-11T00:16:30.713Z,78.09
2022-09-11T00:19:36.870Z,77.94
2022-09-11T00:22:42.033Z,77.88
2022-09-11T00:25:48.902Z,78.03
2022-09-11T00:28:55.548Z,77.96
2022-09-11T00:32:01.369Z,77.97
2022-09-11T00:35:08.602Z,77.97
2022-09-11T00:38:17.419Z,78.05
2022-09-11T00:41:26.033Z,78.07
2022-09-11T00:45:03.521Z,77.99
2022-09-11T00:48:12.741Z,78.08
2022-09-11T00:51:24.745Z,78.17
2022-09-11T00:54:34.901Z,78.08
2022-09-11T00:57:44.455Z,78.15
2022-09-11T01:00:50.860Z,78.19
2022-09-11T01:03:57.298Z,78.25
2022-09-11T01:07:05.359Z,78.08
2022-09-11T01:10:13.304Z,78.18
2022-09-11T01:13:29.242Z,78.30
2022-09-11T01:16:37.682Z,78.50
2022-09-11T01:20:14.504Z,78.45
2022-09-11T01:23:49.165Z,78.33
2022-09-11T01:27:11.482Z,78.44
2022-09-11T01:30:20.338Z,78.47
2022-09-11T01:33:32.154Z,78.33
2022-09-11T01:36:43.663Z,78.45
2022-09-11T01:39:56.189Z,78.63
2022-09-11T01:43:09.938Z,78.50
2022-09-11T01:46:23.245Z,78.50
2022-09-11T01:49:35.413Z,78.73
2022-09-11T01:52:50.525Z,78.83
2022-09-11T01:56:03.701Z,78.79
2022-09-11T01:59:13.617Z,78.98
2022-09-11T02:02:24.092Z,79.08
2022-09-11T02:05:35.200Z,79.06
2022-09-11T02:08:47.163Z,79.21
2022-09-11T02:11:56.993Z,79.33
2022-09-11T02:15:03.471Z,79.46
2022-09-11T02:18:18.644Z,79.51
2022-09-11T02:21:24.645Z,79.43
2022-09-11T02:24:30.901Z,79.37
2022-09-11T02:27:37.244Z,79.42
2022-09-11T02:30:44.078Z,79.37
2022-09-11T02:33:50.714Z,79.60
2022-09-11T02:37:14.627Z,79.68
2022-09-11T02:40:33.234Z,79.89
2022-09-11T02:43:54.835Z,79.87
2022-09-11T02:47:16.514Z,80.16
2022-09-11T02:50:30.553Z,80.36
2022-09-11T02:53:42.855Z,80.47
2022-09-11T02:56:54.742Z,80.60
2022-09-11T03:00:03.250Z,80.56
2022-09-11T03:03:09.067Z,80.52
2022-09-11T03:06:18.361Z,80.68
2022-09-11T03:09:24.369Z,80.65
2022-09-11T03:12:30.258Z,80.92
2022-09-11T03:15:36.143Z,80.87
2022-09-11T03:18:42.126Z,81.09
2022-09-11T03:21:47.994Z,81.12
2022-09-11T03:24:53.878Z,81.07
2022-09-11T03:27:59.734Z,81.26
2022-09-11T03:31:05.587Z,81.34
2022-09-11T03:34:11.618Z,81.47
2022-09-11T03:37:18.291Z,81.40
2022-09-11T03:40:24.939Z,81.37
2022-09-11T03:43:31.166Z,81.56
2022-09-11T03:46:37.189Z,81.57
2022-09-11T03:49:43.062Z,81.77
2022-09-11T03:52:48.926Z,81.67
2022-09-11T03:55:54.946Z,81.83
2022-09-11T03:59:01.623Z,81.83
2022-09-11T04:02:07.959Z,81.81
2022-09-11T04:05:13.898Z,81.79
2022-09-11T04:08:19.766Z,82.03
2022-09-11T04:11:25.705Z,82.13
2022-09-11T04:14:32.259Z,82.05
2022-09-11T04:17:38.208Z,82.14
2022-09-11T04:20:44.066Z,82.08
2022-09-11T04:23:55.830Z,82.17
2022-09-11T04:27:01.707Z,82.21
2022-09-11T04:30:09.294Z,82.38
2022-09-11T04:33:15.269Z,82.35
2022-09-11T04:36:22.811Z,82.27
2022-09-11T04:39:29.486Z,82.50
2022-09-11T04:42:35.366Z,82.47
2022-09-11T04:45:41.865Z,82.35
2022-09-11T04:48:49.304Z,82.48
2022-09-11T04:51:55.156Z,82.63
2022-09-11T04:55:02.089Z,82.52
2022-09-11T04:58:07.970Z,82.67
2022-09-11T05:01:16.522Z,82.69
2022-09-11T05:04:26.006Z,82.80
2022-09-11T05:07:32.356Z,82.78
2022-09-11T05:10:42.449Z,82.69
2022-09-11T05:13:48.799Z,82.78
2022-09-11T05:16:55.202Z,82.81
2022-09-11T05:20:01.044Z,82.76
2022-09-11T05:23:07.306Z,82.81
2022-09-11T05:26:18.027Z,82.79
2022-09-11T05:29:24.114Z,82.89
2022-09-11T05:32:28.327Z,82.82
2022-09-11T05:35:34.196Z,82.80
2022-09-11T05:38:40.706Z,82.93
2022-09-11T05:41:46.575Z,82.76
2022-09-11T05:44:52.417Z,82.93
2022-09-11T05:47:58.259Z,82.84
2022-09-11T05:51:08.026Z,83.09
2022-09-11T05:54:13.884Z,83.04
2022-09-11T05:57:19.984Z,83.05
2022-09-11T06:00:24.190Z,82.88
2022-09-11T06:03:33.581Z,82.93
2022-09-11T06:06:39.818Z,82.98
2022-09-11T06:09:45.698Z,82.82
2022-09-11T06:12:51.567Z,82.93
2022-09-11T06:15:57.642Z,82.86
2022-09-11T06:19:01.986Z,82.98
2022-09-11T06:22:07.934Z,82.89
2022-09-11T06:25:13.831Z,82.95
2022-09-11T06:28:19.756Z,83.00
2022-09-11T06:31:28.139Z,83.03
2022-09-11T06:34:34.058Z,82.90
2022-09-11T06:37:40.117Z,82.76
2022-09-11T06:40:45.975Z,82.83
2022-09-11T06:43:52.174Z,82.68
2022-09-11T06:46:57.530Z,82.81
2022-09-11T06:50:03.433Z,82.86
2022-09-11T06:53:09.689Z,82.69
2022-09-11T06:56:17.672Z,82.71
2022-09-11T06:59:24.654Z,82.77
2022-09-11T07:02:30.493Z,82.55
2022-09-11T07:05:36.438Z,82.33
2022-09-11T07:08:42.398Z,82.43
2022-09-11T07:11:48.276Z,82.28
2022-09-11T07:14:54.115Z,82.43
2022-09-11T07:18:02.295Z,82.44
2022-09-11T07:21:12.942Z,82.39
2022-09-11T07:24:18.841Z,82.04
2022-09-11T07:27:24.890Z,81.75
2022-09-11T07:30:29.443Z,81.94
2022-09-11T07:33:35.360Z,81.90
2022-09-11T07:36:41.794Z,81.80
2022-09-11T07:39:48.151Z,81.79
2022-09-11T07:42:54.590Z,81.72
2022-09-11T07:46:00.469Z,81.78
2022-09-11T07:49:08.041Z,81.71
2022-09-11T07:52:16.825Z,81.65
2022-09-11T07:55:23.022Z,81.52
2022-09-11T07:58:28.875Z,81.38
2022-09-11T08:01:35.195Z,81.65
2022-09-11T08:04:41.059Z,81.48
2022-09-11T08:07:46.949Z,81.59
2022-09-11T08:10:52.821Z,81.38
2022-09-11T08:13:59.311Z,81.35
2022-09-11T08:17:05.274Z,81.49
2022-09-11T08:20:12.143Z,81.12
2022-09-11T08:23:18.300Z,81.24
2022-09-11T08:26:26.049Z,81.11
2022-09-11T08:29:31.946Z,80.84
2022-09-11T08:32:37.890Z,80.89
2022-09-11T08:35:43.737Z,80.68
2022-09-11T08:38:49.776Z,80.64
2022-09-11T08:41:56.596Z,80.42
2022-09-11T08:45:04.315Z,80.44
2022-09-11T08:48:12.469Z,80.41
2022-09-11T08:51:20.701Z,80.50
2022-09-11T08:54:29.886Z,80.54
2022-09-11T08:57:45.745Z,80.69
2022-09-11T09:00:54.331Z,80.58
2022-09-11T09:04:18.849Z,80.48
2022-09-11T09:07:34.791Z,80.60
2022-09-11T09:10:52.218Z,80.91
2022-09-11T09:14:17.206Z,80.89
2022-09-11T09:17:26.292Z,80.93
2022-09-11T09:20:35.562Z,80.95
2022-09-11T09:23:46.011Z,81.09
2022-09-11T09:26:56.334Z,81.17
2022-09-11T09:30:06.866Z,80.87
2022-09-11T09:33:26.098Z,81.18
2022-09-11T09:36:35.954Z,81.17
2022-09-11T09:39:42.210Z,81.05
2022-09-11T09:43:23.018Z,81.16
2022-09-11T09:46:37.376Z,80.90
2022-09-11T09:49:44.310Z,81.01
2022-09-11T09:52:51.248Z,80.99
2022-09-11T09:55:57.409Z,80.76
2022-09-11T09:59:14.890Z,81.00
2022-09-11T10:02:42.926Z,81.10
2022-09-11T10:05:49.875Z,81.21
2022-09-11T10:09:02.785Z,80.87
2022-09-11T10:12:15.506Z,80.67
2022-09-11T10:15:25.638Z,80.33
2022-09-11T10:18:44.042Z,80.16
2022-09-11T10:21:50.495Z,80.43
2022-09-11T10:25:17.486Z,80.36
2022-09-11T10:28:31.406Z,80.35
2022-09-11T10:31:40.222Z,80.37
2022-09-11T10:34:46.125Z,80.17
2022-09-11T10:38:13.744Z,80.00
2022-09-11T10:41:21.823Z,80.08
2022-09-11T10:44:29.761Z,80.14
2022-09-11T10:47:36.111Z,79.99
2022-09-11T10:50:44.153Z,79.96
2022-09-11T10:54:01.358Z,79.81
2022-09-11T10:57:16.333Z,80.02
2022-09-11T11:00:25.572Z,79.72
2022-09-11T11:03:32.121Z,79.71
2022-09-11T11:06:49.791Z,79.49
2022-09-11T11:10:07.473Z,79.09
2022-09-11T11:13:31.354Z,78.63
2022-09-11T11:16:49.234Z,78.38
2022-09-11T11:20:13.965Z,78.51
2022-09-11T11:23:44.322Z,78.59
2022-09-11T11:27:01.973Z,78.36
2022-09-11T11:30:15.266Z,78.40
2022-09-11T11:33:39.271Z,78.09
2022-09-11T11:36:49.822Z,77.89
2022-09-11T11:40:01.674Z,77.36
2022-09-11T11:43:12.771Z,77.59
2022-09-11T11:46:22.357Z,77.26
2022-09-11T11:49:39.443Z,77.43
2022-09-11T11:52:57.735Z,77.06
2022-09-11T11:56:10.172Z,76.67
2022-09-11T11:59:20.587Z,76.67
2022-09-11T12:02:33.550Z,76.54
2022-09-11T12:05:41.625Z,76.59
2022-09-11T12:08:48.566Z,76.45
2022-09-11T12:11:57.669Z,76.56
2022-09-11T12:15:09.538Z,76.25
2022-09-11T12:18:26.230Z,76.50
2022-09-11T12:21:41.066Z,76.47
2022-09-11T12:24:59.333Z,76.43
2022-09-11T12:28:24.850Z,76.09
2022-09-11T12:31:49.030Z,75.95
2022-09-11T12:35:15.181Z,76.04
2022-09-11T12:38:31.737Z,76.23
2022-09-11T12:41:38.810Z,76.28
2022-09-11T12:45:01.018Z,76.46
2022-09-11T12:48:14.291Z,76.21
2022-09-11T12:51:24.473Z,76.35
2022-09-11T12:54:33.786Z,76.26
2022-09-11T12:57:40.978Z,76.32
2022-09-11T13:00:50.333Z,76.40
2022-09-11T13:04:01.897Z,76.44
2022-09-11T13:07:09.153Z,76.42
2022-09-11T13:10:30.696Z,76.16
2022-09-11T13:13:47.085Z,76.13
2022-09-11T13:16:53.164Z,76.10
2022-09-11T13:20:23.040Z,76.03
2022-09-11T13:23:29.784Z,76.07
2022-09-11T13:26:35.740Z,75.97
2022-09-11T13:29:42.982Z,75.94
2022-09-11T13:32:51.419Z,75.80
2022-09-11T13:35:58.854Z,75.66
2022-09-11T13:39:06.182Z,75.49
2022-09-11T13:42:16.491Z,75.19
2022-09-11T13:45:25.131Z,75.31
2022-09-11T13:48:31.015Z,75.18
2022-09-11T13:51:41.008Z,74.97
2022-09-11T13:54:50.500Z,74.68
2022-09-11T13:57:58.809Z,74.94
2022-09-11T14:01:14.397Z,74.88
2022-09-11T14:04:21.441Z,74.78
2022-09-11T14:07:28.947Z,74.84
2022-09-11T14:10:39.825Z,74.64
2022-09-11T14:13:51.310Z,74.73
2022-09-11T14:17:01.420Z,74.62
2022-09-11T14:20:14.966Z,74.59
2022-09-11T14:23:25.224Z,74.80
2022-09-11T14:26:43.903Z,74.87
2022-09-11T14:29:55.919Z,74.88
2022-09-11T14:33:26.082Z,75.01
2022-09-11T14:36:32.520Z,75.14
2022-09-11T14:39:41.905Z,75.29
2022-09-11T14:42:49.014Z,75.30
2022-09-11T14:45:56.402Z,75.38
2022-09-11T14:49:02.788Z,75.50
2022-09-11T14:52:08.804Z,75.83
2022-09-11T14:55:15.861Z,75.76
2022-09-11T14:58:21.740Z,76.01
2022-09-11T15:01:27.693Z,76.06
2022-09-11T15:04:32.317Z,76.18
2022-09-11T15:07:38.446Z,76.06
2022-09-11T15:10:46.529Z,76.11
2022-09-11T15:14:13.815Z,76.18
2022-09-11T15:17:20.307Z,76.25
2022-09-11T15:20:27.866Z,76.43
2022-09-11T15:23:33.993Z,76.49
2022-09-11T15:26:39.902Z,76.57
2022-09-11T15:29:44.344Z,76.76
2022-09-11T15:32:50.336Z,76.83
2022-09-11T15:35:56.950Z,76.70
2022-09-11T15:39:03.681Z,76.94
2022-09-11T15:42:10.111Z,76.97
2022-09-11T15:45:16.042Z,76.90
2022-09-11T15:48:21.532Z,76.98
2022-09-11T15:51:27.373Z,77.04
2022-09-11T15:54:33.234Z,77.17
2022-09-11T15:57:39.574Z,77.07
2022-09-11T16:00:46.293Z,77.14
2022-09-11T16:03:54.705Z,76.84
2022-09-11T16:07:01.011Z,76.87
2022-09-11T16:10:07.923Z,77.01
2022-09-11T16:13:13.787Z,77.04
2022-09-11T16:16:20.523Z,77.18
2022-09-11T16:19:31.441Z,77.29
2022-09-11T16:22:37.334Z,77.14
2022-09-11T16:25:44.083Z,77.36
2022-09-11T16:28:50.491Z,77.44
2022-09-11T16:31:56.726Z,77.52
2022-09-11T16:35:02.678Z,77.47
2022-09-11T16:38:09.610Z,77.58
2022-09-11T16:41:18.879Z,77.49
2022-09-11T16:44:24.739Z,77.59
2022-09-11T16:47:32.166Z,77.61
2022-09-11T16:50:38.006Z,77.60
2022-09-11T16:53:45.308Z,77.31
2022-09-11T16:56:51.198Z,77.61
2022-09-11T16:59:57.358Z,77.62
2022-09-11T17:03:03.210Z,77.41
2022-09-11T17:06:09.449Z,77.57
2022-09-11T17:09:15.312Z,77.61
2022-09-11T17:12:21.405Z,77.56
2022-09-11T17:15:26.674Z,77.57
2022-09-11T17:18:33.438Z,77.65
2022-09-11T17:21:39.680Z,77.67
2022-09-11T17:24:45.639Z,77.58
2022-09-11T17:27:51.775Z,77.63
2022-09-11T17:30:55.998Z,77.79
2022-09-11T17:34:02.170Z,77.78
2022-09-11T17:37:08.210Z,77.76
2022-09-11T17:40:14.045Z,77.65
2022-09-11T17:43:19.931Z,77.98
2022-09-11T17:46:26.084Z,77.92
2022-09-11T17:49:32.077Z,77.86
2022-09-11T17:52:38.882Z,77.89
2022-09-11T17:55:46.437Z,78.02
2022-09-11T17:58:56.094Z,77.80
2022-09-11T18:02:02.352Z,77.69
2022-09-11T18:05:09.543Z,77.87
2022-09-11T18:08:15.444Z,77.97
2022-09-11T18:11:21.294Z,77.89
2022-09-11T18:14:28.015Z,78.01
2022-09-11T18:17:33.950Z,77.92
2022-09-11T18:20:39.826Z,78.00
2022-09-11T18:23:47.350Z,77.99
2022-09-11T18:27:00.021Z,78.10
2022-09-11T18:30:09.790Z,78.11
2022-09-11T18:33:17.146Z,78.19
2022-09-11T18:36:23.717Z,78.17
2022-09-11T18:39:29.937Z,78.44
2022-09-11T18:42:35.790Z,78.45
2022-09-11T18:45:42.083Z,78.29
2022-09-11T18:48:48.539Z,78.42
2022-09-11T18:51:54.973Z,78.32
2022-09-11T18:55:00.903Z,78.46
2022-09-11T18:58:06.915Z,78.37
2022-09-11T19:01:12.615Z,78.39
2022-09-11T19:04:17.008Z,78.62
2022-09-11T19:07:22.959Z,78.48
2022-09-11T19:10:29.889Z,78.53
2022-09-11T19:13:35.782Z,78.47
2022-09-11T19:16:42.513Z,78.56
2022-09-11T19:19:48.409Z,78.42
2022-09-11T19:22:56.299Z,78.52
2022-09-11T19:26:06.992Z,78.58
2022-09-11T19:29:15.938Z,78.75
2022-09-11T19:32:23.707Z,78.73
2022-09-11T19:35:29.564Z,78.69
2022-09-11T19:38:37.719Z,78.75
2022-09-11T19:41:43.622Z,78.69
2022-09-11T19:44:54.343Z,78.81
2022-09-11T19:48:02.047Z,78.59
2022-09-11T19:51:09.627Z,78.77
2022-09-11T19:54:16.356Z,78.81
2022-09-11T19:57:22.237Z,78.65
2022-09-11T20:00:28.266Z,78.76
2022-09-11T20:03:32.755Z,78.91
2022-09-11T20:06:39.657Z,78.86
2022-09-11T20:09:45.640Z,78.93
2022-09-11T20:12:51.507Z,78.95
2022-09-11T20:15:57.396Z,78.93
2022-09-11T20:19:06.640Z,78.85
2022-09-11T20:22:12.686Z,78.87
2022-09-11T20:25:19.363Z,79.06
2022-09-11T20:28:25.407Z,78.94
2022-09-11T20:31:31.760Z,79.05
2022-09-11T20:34:37.659Z,78.97
2022-09-11T20:37:43.545Z,79.03
2022-09-11T20:40:49.421Z,78.98
2022-09-11T20:43:55.344Z,79.04
2022-09-11T20:47:01.330Z,79.05
2022-09-11T20:50:06.137Z,79.18
2022-09-11T20:53:11.994Z,79.03
2022-09-11T20:56:20.450Z,79.22
2022-09-11T20:59:26.319Z,79.11
2022-09-11T21:02:32.156Z,79.06
2022-09-11T21:05:39.812Z,79.22
2022-09-11T21:08:46.166Z,79.16
2022-09-11T21:11:52.301Z,79.07
2022-09-11T21:14:56.533Z,79.19
2022-09-11T21:18:02.397Z,79.18
2022-09-11T21:21:09.055Z,79.04
2022-09-11T21:24:15.602Z,79.19
2022-09-11T21:27:21.492Z,79.12
2022-09-11T21:30:27.351Z,79.20
2022-09-11T21:33:33.786Z,79.36
2022-09-11T21:36:39.650Z,79.26
2022-09-11T21:39:45.606Z,79.32
2022-09-11T21:42:51.535Z,79.31
2022-09-11T21:45:57.410Z,79.33
2022-09-11T21:49:03.314Z,79.34
2022-09-11T21:52:10.223Z,79.40
2022-09-11T21:55:16.391Z,79.37
2022-09-11T21:58:21.497Z,79.34
2022-09-11T22:01:28.759Z,79.47
2022-09-11T22:04:34.942Z,79.47
2022-09-11T22:07:39.502Z,79.48
2022-09-11T22:10:46.740Z,79.58
2022-09-11T22:13:53.109Z,79.63
2022-09-11T22:16:59.018Z,79.63
2022-09-11T22:20:05.841Z,79.75
2022-09-11T22:23:16.551Z,79.81
2022-09-11T22:26:24.734Z,79.80
2022-09-11T22:29:30.594Z,79.81
2022-09-11T22:32:36.502Z,79.85
2022-09-11T22:35:44.069Z,79.83
2022-09-11T22:38:51.946Z,79.80
2022-09-11T22:41:58.322Z,79.86
2022-09-11T22:45:04.215Z,79.89
2022-09-11T22:48:10.062Z,79.84
2022-09-11T22:51:15.930Z,80.01
2022-09-11T22:54:22.025Z,79.80
2022-09-11T22:57:29.122Z,80.04
2022-09-11T23:00:35.353Z,80.05
2022-09-11T23:03:41.438Z,79.92
2022-09-11T23:07:04.939Z,80.23
2022-09-11T23:10:12.063Z,80.07
2022-09-11T23:13:17.947Z,80.15
2022-09-11T23:16:25.391Z,80.13
2022-09-11T23:19:32.741Z,80.23
2022-09-11T23:22:38.710Z,79.93
2022-09-11T23:25:44.586Z,80.04
2022-09-11T23:28:50.674Z,80.02
2022-09-11T23:31:58.511Z,80.04
2022-09-11T23:35:04.522Z,80.16
2022-09-11T23:38:10.872Z,80.30
2022-09-11T23:41:17.394Z,80.38
2022-09-11T23:44:23.282Z,80.36
2022-09-11T23:47:29.234Z,80.38
2022-09-11T23:50:35.090Z,80.34
2022-09-11T23:53:43.599Z,80.38
2022-09-11T23:56:49.470Z,80.30
2022-09-11T23:59:55.347Z,80.50
